Nearby METAR Reports

Actuele Vliegveldwaarnemingen NL (METAR).Zie KNMI uitleg METAR hier

EHAM - Amsterdam/Schiph, Netherlands
Distance from station: ONO 18km
Updated: 22/02/2018 07:55
Helder
Helder
 Wind van ONO
Wind: ONO 17 km/h
Temperatuur: -2°C
Wind Chill: -7°C
Dauwpunt: -5°C
Vochtigheid: 80%
Barometer: 1026 hPa
Overzicht: Helder
Visibility: greater than 10 km
2018/02/22 06:55 EHAM 220655Z 07009KT 040V110 CAVOK M02/M05 Q1026 NOSIG
EHKD - DE KOOY/DE KOOY
Updated: 22/02/2018 07:55
Mist, Helder
Mist, Helder
 Wind van ONO
Wind: ONO 15 km/h
Temperatuur: -1°C
Wind Chill: -6°C
Dauwpunt: -3°C
Vochtigheid: 86%
Barometer: 1027 hPa
Overzicht: Mist
Clouds: Helder
Visibility: 9 km
2018/02/22 06:55 EHKD 220655Z AUTO 07008KT 9000 BR NCD M01/M03 Q1027 BLU 07010KT CAVOK
 
EHLW - LEEUWARDEN/LEEUWARDEN
Updated: 22/02/2018 07:55
Mist, Helder
Mist, Helder
 Wind van ONO
Wind: ONO 7 km/h
Temperatuur: -4°C
Wind Chill: -7°C
Dauwpunt: -5°C
Vochtigheid: 93%
Barometer: 1027 hPa
Overzicht: Mist
Clouds: Helder
Visibility: 5 km
2018/02/22 06:55 EHLW 220655Z AUTO 06004KT 4600 BR NCD M04/M05 Q1027 GRN
EHVK - VOLKEL/VOLKEL
Updated: 22/02/2018 07:55
Helder
Helder
 Wind van ONO
Wind: ONO 11 km/h
Temperatuur: -3°C
Wind Chill: -7°C
Dauwpunt: -6°C
Vochtigheid: 80%
Barometer: 1024 hPa
Clouds: Helder
Visibility: 10 km
2018/02/22 06:55 EHVK 220655Z AUTO 06006KT 9999 NCD M03/M06 Q1024 BLU
 
EHFS - VLISSINGEN
Updated: 22/02/2018 07:25
Helder
Helder
 Wind van ONO
Wind: ONO 22 km/h
Temperatuur: 0°C
Wind Chill: -6°C
Dauwpunt: -4°C
Vochtigheid: 75%
Barometer: 1024 hPa
Clouds: Helder
Visibility: 10 km
2018/02/22 06:25 EHFS 220625Z AUTO 06012KT 020V100 9999 NCD M00/M04 Q1024 W///H///
EHEH - EINDHOVEN/EINDHOVEN
Updated: 22/02/2018 07:55
Helder
Helder
 Wind van ONO
Wind: ONO 15 km/h
Temperatuur: -2°C
Wind Chill: -7°C
Dauwpunt: -5°C
Vochtigheid: 80%
Barometer: 1024 hPa
Clouds: Helder
Visibility: 10 km
2018/02/22 06:55 EHEH 220655Z AUTO 06008KT 020V090 9999 NCD M02/M05 Q1024 BLU 06010KT CAVOK
 
EHGR - GILZE-RIJEN/GILZE-RIJEN
Updated: 22/02/2018 07:55
Helder
Helder
 Wind van NO
Wind: NO 13 km/h
Temperatuur: -3°C
Wind Chill: -7°C
Dauwpunt: -6°C
Vochtigheid: 80%
Barometer: 1024 hPa
Clouds: Helder
Visibility: 10 km
2018/02/22 06:55 EHGR 220655Z AUTO 05007KT 030V100 9999 NCD M03/M06 Q1024 BLU
EHDL - ARNHEM/DEELEN
Updated: 22/02/2018 07:55
Helder
Helder
 Wind van NO
Wind: NO 13 km/h
Temperatuur: -4°C
Wind Chill: -9°C
Dauwpunt: -6°C
Vochtigheid: 86%
Barometer: 1025 hPa
Clouds: Helder
Visibility: 10 km
2018/02/22 06:55 EHDL 220655Z AUTO 05007KT 360V090 9999 NCD M04/M06 Q1025 BLU
 
EHBK - MAASTRICHT/MAASTRICHT-AACHEN
Updated: 22/02/2018 07:55
Helder
Helder
 Wind van NO
Wind: NO 20 km/h
Temperatuur: -3°C
Wind Chill: -9°C
Dauwpunt: -5°C
Vochtigheid: 86%
Barometer: 1022 hPa
Clouds: Helder
Visibility: 10 km
2018/02/22 06:55 EHBK 220655Z AUTO 05011KT 9999 NCD M03/M05 Q1022 NOSIG